createdAt,value
2023-05-19T00:00:37.213Z,102324.88
2023-05-19T00:03:04.166Z,102322.63
2023-05-19T00:05:31.297Z,102326.91
2023-05-19T00:07:59.437Z,102326.91
2023-05-19T00:10:27.783Z,102327.25
2023-05-19T00:12:56.081Z,102318.44
2023-05-19T00:15:23.098Z,102324.69
2023-05-19T00:17:49.641Z,102326.84
2023-05-19T00:20:16.205Z,102318.44
2023-05-19T00:22:42.739Z,102320.34
2023-05-19T00:25:10.193Z,102318.28
2023-05-19T00:27:36.748Z,102319.47
2023-05-19T00:30:05.746Z,102310.88
2023-05-19T00:32:32.340Z,102321.28
2023-05-19T00:34:59.469Z,102317.63
2023-05-19T00:37:26.217Z,102316.66
2023-05-19T00:39:52.730Z,102314.56
2023-05-19T00:42:20.847Z,102316.03
2023-05-19T00:44:47.400Z,102316.25
2023-05-19T00:47:15.268Z,102302.63
2023-05-19T00:49:41.798Z,102309.09
2023-05-19T00:52:08.366Z,102302.09
2023-05-19T00:54:34.897Z,102303.31
2023-05-19T00:57:01.531Z,102291.75
2023-05-19T00:59:28.052Z,102295.59
2023-05-19T01:01:54.726Z,102289.66
2023-05-19T01:04:22.752Z,102290.84
2023-05-19T01:06:49.383Z,102292.88
2023-05-19T01:09:17.015Z,102296.50
2023-05-19T01:11:43.541Z,102295.84
2023-05-19T01:14:10.137Z,102296.59
2023-05-19T01:16:40.959Z,102301.78
2023-05-19T01:19:23.215Z,102299.59
2023-05-19T01:22:20.023Z,102301.41
2023-05-19T01:25:23.873Z,102307.78
2023-05-19T01:28:29.674Z,102304.59
2023-05-19T01:30:59.398Z,102306.78
2023-05-19T01:33:28.608Z,102303.38
2023-05-19T01:35:56.182Z,102298.91
2023-05-19T01:38:25.048Z,102297.13
2023-05-19T01:40:52.982Z,102297.34
2023-05-19T01:43:21.592Z,102295.78
2023-05-19T01:45:49.113Z,102296.84
2023-05-19T01:48:18.418Z,102297.91
2023-05-19T01:50:45.247Z,102295.56
2023-05-19T01:53:11.869Z,102301.72
2023-05-19T01:55:44.112Z,102303.66
2023-05-19T01:58:20.787Z,102301.13
2023-05-19T02:01:01.109Z,102296.03
2023-05-19T02:03:42.755Z,102296.34
2023-05-19T02:06:21.229Z,102290.56
2023-05-19T02:08:57.111Z,102295.97
2023-05-19T02:11:29.520Z,102288.22
2023-05-19T02:14:01.096Z,102284.81
2023-05-19T02:16:28.847Z,102277.81
2023-05-19T02:18:56.752Z,102280.63
2023-05-19T02:21:23.362Z,102278.38
2023-05-19T02:23:50.857Z,102279.34
2023-05-19T02:26:17.412Z,102272.69
2023-05-19T02:28:43.911Z,102270.03
2023-05-19T02:31:10.412Z,102277.25
2023-05-19T02:33:36.921Z,102271.94
2023-05-19T02:36:05.759Z,102273.75
2023-05-19T02:38:32.316Z,102282.00
2023-05-19T02:40:58.835Z,102279.50
2023-05-19T02:43:25.375Z,102276.22
2023-05-19T02:45:51.921Z,102269.97
2023-05-19T02:48:18.501Z,102275.25
2023-05-19T02:50:45.051Z,102266.78
2023-05-19T02:53:12.982Z,102275.66
2023-05-19T02:55:39.553Z,102278.56
2023-05-19T02:58:06.088Z,102274.97
2023-05-19T03:00:32.960Z,102273.56
2023-05-19T03:02:59.713Z,102277.28
2023-05-19T03:05:26.254Z,102272.09
2023-05-19T03:07:52.777Z,102271.25
2023-05-19T03:10:20.652Z,102269.56
2023-05-19T03:12:47.198Z,102268.09
2023-05-19T03:15:13.743Z,102266.38
2023-05-19T03:17:40.376Z,102273.78
2023-05-19T03:20:08.210Z,102271.59
2023-05-19T03:22:35.210Z,102270.84
2023-05-19T03:25:01.900Z,102272.84
2023-05-19T03:27:29.795Z,102272.19
2023-05-19T03:29:56.318Z,102277.50
2023-05-19T03:32:22.924Z,102274.00
2023-05-19T03:34:49.526Z,102269.75
2023-05-19T03:37:16.056Z,102270.69
2023-05-19T03:39:42.572Z,102276.09
2023-05-19T03:42:09.120Z,102276.19
2023-05-19T03:44:37.030Z,102279.81
2023-05-19T03:47:03.683Z,102280.03
2023-05-19T03:49:30.192Z,102287.22
2023-05-19T03:51:56.749Z,102284.66
2023-05-19T03:54:23.257Z,102291.84
2023-05-19T03:56:49.841Z,102289.22
2023-05-19T03:59:16.350Z,102294.41
2023-05-19T04:01:44.247Z,102290.16
2023-05-19T04:04:10.818Z,102292.72
2023-05-19T04:06:37.528Z,102295.34
2023-05-19T04:09:11.747Z,102292.94
2023-05-19T04:11:38.258Z,102292.81
2023-05-19T04:14:04.820Z,102294.50
2023-05-19T04:16:31.582Z,102300.66
2023-05-19T04:18:59.552Z,102294.41
2023-05-19T04:21:26.194Z,102300.66
2023-05-19T04:23:52.725Z,102297.91
2023-05-19T04:26:19.345Z,102294.22
2023-05-19T04:28:45.871Z,102294.31
2023-05-19T04:31:12.434Z,102301.19
2023-05-19T04:33:39.203Z,102296.00
2023-05-19T04:36:08.192Z,102293.34
2023-05-19T04:38:34.750Z,102298.66
2023-05-19T04:41:01.270Z,102300.25
2023-05-19T04:43:28.032Z,102299.41
2023-05-19T04:45:55.101Z,102294.00
2023-05-19T04:48:21.636Z,102292.06
2023-05-19T04:50:48.158Z,102290.06
2023-05-19T04:53:16.054Z,102296.75
2023-05-19T04:55:42.583Z,102288.72
2023-05-19T04:58:09.122Z,102297.22
2023-05-19T05:00:37.256Z,102284.50
2023-05-19T05:03:04.034Z,102289.56
2023-05-19T05:05:30.678Z,102288.53
2023-05-19T05:07:57.329Z,102285.97
2023-05-19T05:10:25.356Z,102287.38
2023-05-19T05:12:52.465Z,102283.75
2023-05-19T05:15:20.436Z,102290.41
2023-05-19T05:17:47.698Z,102291.06
2023-05-19T05:20:15.338Z,102289.56
2023-05-19T05:22:42.373Z,102284.56
2023-05-19T05:25:10.490Z,102279.44
2023-05-19T05:27:38.410Z,102280.47
2023-05-19T05:30:05.971Z,102285.03
2023-05-19T05:32:32.632Z,102291.56
2023-05-19T05:34:59.244Z,102295.56
2023-05-19T05:37:25.786Z,102285.16
2023-05-19T05:39:52.331Z,102289.38
2023-05-19T05:42:18.892Z,102291.13
2023-05-19T05:44:46.771Z,102291.66
2023-05-19T05:47:14.342Z,102291.91
2023-05-19T05:49:41.474Z,102287.63
2023-05-19T05:52:11.055Z,102296.69
2023-05-19T05:54:38.344Z,102281.75
2023-05-19T05:57:05.706Z,102295.19
2023-05-19T05:59:32.222Z,102288.56
2023-05-19T06:02:00.408Z,102295.94
2023-05-19T06:04:26.961Z,102291.63
2023-05-19T06:06:53.518Z,102289.97
2023-05-19T06:09:20.092Z,102281.31
2023-05-19T06:11:46.620Z,102283.13
2023-05-19T06:14:13.164Z,102290.72
2023-05-19T06:16:39.985Z,102289.41
2023-05-19T06:19:08.050Z,102294.34
2023-05-19T06:21:34.626Z,102293.78
2023-05-19T06:24:01.192Z,102292.19
2023-05-19T06:26:27.773Z,102304.00
2023-05-19T06:28:54.361Z,102297.97
2023-05-19T06:31:20.977Z,102301.84
2023-05-19T06:33:47.555Z,102303.88
2023-05-19T06:36:15.492Z,102297.06
2023-05-19T06:38:42.028Z,102300.72
2023-05-19T06:41:08.553Z,102298.81
2023-05-19T06:43:35.115Z,102294.72
2023-05-19T06:46:01.772Z,102287.78
2023-05-19T06:48:28.306Z,102289.91
2023-05-19T06:50:54.894Z,102290.53
2023-05-19T06:53:22.796Z,102293.25
2023-05-19T06:55:58.193Z,102296.31
2023-05-19T06:58:25.701Z,102295.00
2023-05-19T07:00:52.236Z,102300.13
2023-05-19T07:03:18.824Z,102303.69
2023-05-19T07:05:45.521Z,102300.25
2023-05-19T07:08:12.050Z,102297.91
2023-05-19T07:10:39.946Z,102296.41
2023-05-19T07:13:06.492Z,102293.47
2023-05-19T07:15:33.070Z,102284.09
2023-05-19T07:17:59.776Z,102290.59
2023-05-19T07:20:26.386Z,102290.91
2023-05-19T07:22:52.986Z,102286.72
2023-05-19T07:25:19.558Z,102288.13
2023-05-19T07:27:47.557Z,102289.16
2023-05-19T07:30:14.199Z,102278.66
2023-05-19T07:32:40.791Z,102293.41
2023-05-19T07:35:07.870Z,102290.66
2023-05-19T07:37:34.436Z,102290.84
2023-05-19T07:40:01.079Z,102291.97
2023-05-19T07:42:27.586Z,102291.41
2023-05-19T07:44:55.456Z,102293.53
2023-05-19T07:47:21.970Z,102291.84
2023-05-19T07:49:50.368Z,102295.09
2023-05-19T07:52:18.364Z,102297.03
2023-05-19T07:54:45.851Z,102292.53
2023-05-19T07:57:12.423Z,102292.53
2023-05-19T07:59:38.978Z,102293.22
2023-05-19T08:02:07.528Z,102289.00
2023-05-19T08:04:34.161Z,102287.44
2023-05-19T08:07:00.814Z,102284.03
2023-05-19T08:09:27.349Z,102277.28
2023-05-19T08:11:54.083Z,102280.34
2023-05-19T08:14:20.615Z,102274.16
2023-05-19T08:16:47.215Z,102271.47
2023-05-19T08:19:15.311Z,102265.50
2023-05-19T08:21:41.884Z,102266.19
2023-05-19T08:24:08.487Z,102268.97
2023-05-19T08:26:37.029Z,102270.59
2023-05-19T08:29:04.430Z,102263.00
2023-05-19T08:31:31.071Z,102243.66
2023-05-19T08:33:57.632Z,102246.97
2023-05-19T08:36:25.508Z,102242.22
2023-05-19T08:38:52.206Z,102242.31
2023-05-19T08:41:18.871Z,102240.44
2023-05-19T08:43:45.478Z,102240.34
2023-05-19T08:46:14.049Z,102231.97
2023-05-19T08:48:42.638Z,102235.75
2023-05-19T08:51:17.989Z,102235.53
2023-05-19T08:53:50.375Z,102231.25
2023-05-19T08:56:21.433Z,102225.25
2023-05-19T08:58:49.436Z,102221.16
2023-05-19T09:01:16.528Z,102221.84
2023-05-19T09:03:43.693Z,102230.59
2023-05-19T09:06:11.137Z,102227.50
2023-05-19T09:08:37.805Z,102222.69
2023-05-19T09:11:05.865Z,102213.22
2023-05-19T09:13:32.464Z,102226.00
2023-05-19T09:15:59.819Z,102216.47
2023-05-19T09:18:26.681Z,102220.13
2023-05-19T09:20:57.289Z,102213.63
2023-05-19T09:23:23.854Z,102221.16
2023-05-19T09:25:51.389Z,102210.63
2023-05-19T09:28:25.520Z,102213.94
2023-05-19T09:31:02.685Z,102209.56
2023-05-19T09:33:30.539Z,102206.72
2023-05-19T09:35:57.418Z,102203.66
2023-05-19T09:38:24.510Z,102210.94
2023-05-19T09:40:51.876Z,102200.22
2023-05-19T09:43:18.482Z,102198.19
2023-05-19T09:45:46.960Z,102193.03
2023-05-19T09:48:14.555Z,102197.06
2023-05-19T09:50:42.686Z,102191.66
2023-05-19T09:53:09.226Z,102190.19
2023-05-19T09:55:35.820Z,102192.50
2023-05-19T09:58:02.424Z,102194.91
2023-05-19T10:00:31.168Z,102188.66
2023-05-19T10:03:00.515Z,102186.13
2023-05-19T10:05:27.677Z,102183.81
2023-05-19T10:07:55.180Z,102177.06
2023-05-19T10:10:22.474Z,102186.97
2023-05-19T10:12:49.883Z,102190.66
2023-05-19T10:15:17.722Z,102192.16
2023-05-19T10:17:45.050Z,102197.38
2023-05-19T10:20:14.386Z,102193.31
2023-05-19T10:22:41.996Z,102196.66
2023-05-19T10:25:10.166Z,102195.63
2023-05-19T10:27:40.430Z,102194.88
2023-05-19T10:30:13.228Z,102182.50
2023-05-19T10:32:44.380Z,102178.66
2023-05-19T10:35:32.443Z,102172.19
2023-05-19T10:38:11.652Z,102172.31
2023-05-19T10:40:43.793Z,102165.41
2023-05-19T10:43:21.908Z,102164.25
2023-05-19T10:45:51.543Z,102167.19
2023-05-19T10:48:20.471Z,102153.75
2023-05-19T10:50:49.237Z,102149.59
2023-05-19T10:53:16.870Z,102165.28
2023-05-19T10:55:49.872Z,102171.78
2023-05-19T10:58:36.717Z,102162.72
2023-05-19T11:01:07.519Z,102160.94
2023-05-19T11:03:44.492Z,102155.47
2023-05-19T11:06:19.528Z,102157.63
2023-05-19T11:08:46.257Z,102163.00
2023-05-19T11:11:14.197Z,102162.34
2023-05-19T11:13:46.773Z,102160.22
2023-05-19T11:16:13.502Z,102161.41
2023-05-19T11:18:40.594Z,102158.44
2023-05-19T11:21:07.217Z,102151.84
2023-05-19T11:23:38.422Z,102151.09
2023-05-19T11:26:07.366Z,102146.72
2023-05-19T11:28:34.101Z,102144.59
2023-05-19T11:31:01.002Z,102132.78
2023-05-19T11:33:27.947Z,102140.41
2023-05-19T11:35:56.329Z,102147.75
2023-05-19T11:38:22.879Z,102137.06
2023-05-19T11:40:53.234Z,102131.72
2023-05-19T11:43:22.185Z,102131.75
2023-05-19T11:45:48.827Z,102131.09
2023-05-19T11:48:15.427Z,102137.25
2023-05-19T11:50:42.186Z,102130.53
2023-05-19T11:53:11.835Z,102127.47
2023-05-19T11:55:42.381Z,102128.19
2023-05-19T11:58:10.282Z,102126.00
2023-05-19T12:00:40.212Z,102128.38
2023-05-19T12:03:07.592Z,102123.38
2023-05-19T12:05:40.947Z,102115.09
2023-05-19T12:08:09.782Z,102119.84
2023-05-19T12:10:36.928Z,102117.66
2023-05-19T12:13:05.041Z,102112.09
2023-05-19T12:15:33.072Z,102107.69
2023-05-19T12:18:00.830Z,102099.94
2023-05-19T12:20:28.505Z,102109.97
2023-05-19T12:22:55.603Z,102107.09
2023-05-19T12:25:23.197Z,102105.28
2023-05-19T12:27:50.278Z,102101.41
2023-05-19T12:30:17.014Z,102096.03
2023-05-19T12:32:46.049Z,102096.94
2023-05-19T12:35:12.679Z,102097.06
2023-05-19T12:37:41.850Z,102083.06
2023-05-19T12:40:09.838Z,102089.59
2023-05-19T12:42:36.532Z,102091.00
2023-05-19T12:45:04.162Z,102093.50
2023-05-19T12:47:32.435Z,102088.16
2023-05-19T12:50:03.902Z,102081.75
2023-05-19T12:52:31.998Z,102079.03
2023-05-19T12:54:59.309Z,102086.44
2023-05-19T12:57:25.948Z,102087.34
2023-05-19T12:59:53.079Z,102078.28
2023-05-19T13:02:19.942Z,102085.09
2023-05-19T13:04:46.607Z,102079.81
2023-05-19T13:07:14.506Z,102072.19
2023-05-19T13:09:41.073Z,102071.22
2023-05-19T13:12:07.848Z,102076.13
2023-05-19T13:14:34.394Z,102075.47
2023-05-19T13:17:01.067Z,102068.84
2023-05-19T13:19:27.690Z,102061.84
2023-05-19T13:21:54.312Z,102064.34
2023-05-19T13:24:22.195Z,102073.41
2023-05-19T13:26:48.683Z,102070.88
2023-05-19T13:29:15.282Z,102058.91
2023-05-19T13:31:41.931Z,102056.69
2023-05-19T13:34:08.513Z,102055.66
2023-05-19T13:36:35.140Z,102046.94
2023-05-19T13:39:01.776Z,102052.34
2023-05-19T13:41:29.714Z,102047.19
2023-05-19T13:43:58.069Z,102042.34
2023-05-19T13:46:36.741Z,102038.75
2023-05-19T13:49:11.066Z,102046.19
2023-05-19T13:51:37.701Z,102038.09
2023-05-19T13:54:04.362Z,102052.06
2023-05-19T13:56:32.228Z,102049.53
2023-05-19T13:58:59.082Z,102041.47
2023-05-19T14:01:25.741Z,102031.16
2023-05-19T14:03:52.563Z,102046.13
2023-05-19T14:06:19.359Z,102038.94
2023-05-19T14:08:45.930Z,102037.25
2023-05-19T14:11:17.619Z,102040.63
2023-05-19T14:13:45.498Z,102029.00
2023-05-19T14:16:12.077Z,102032.34
2023-05-19T14:18:38.706Z,102030.47
2023-05-19T14:21:05.806Z,102032.81
2023-05-19T14:23:32.457Z,102043.19
2023-05-19T14:25:59.003Z,102038.84
2023-05-19T14:28:25.600Z,102035.88
2023-05-19T14:30:53.495Z,102022.38
2023-05-19T14:33:20.649Z,102031.97
2023-05-19T14:35:47.260Z,102017.53
2023-05-19T14:38:13.812Z,102028.78
2023-05-19T14:40:40.352Z,102024.22
2023-05-19T14:43:06.948Z,102025.69
2023-05-19T14:45:33.746Z,102021.34
2023-05-19T14:48:01.783Z,102023.22
2023-05-19T14:50:29.309Z,102023.47
2023-05-19T14:52:56.518Z,102016.38
2023-05-19T14:55:23.136Z,102019.84
2023-05-19T14:57:49.676Z,102010.09
2023-05-19T15:00:16.730Z,102012.91
2023-05-19T15:02:43.563Z,102004.91
2023-05-19T15:05:11.534Z,102005.00
2023-05-19T15:07:38.117Z,102006.88
2023-05-19T15:10:05.451Z,101999.13
2023-05-19T15:12:32.101Z,102001.19
2023-05-19T15:14:58.708Z,102014.84
2023-05-19T15:17:25.285Z,102006.13
2023-05-19T15:19:52.123Z,102002.84
2023-05-19T15:22:20.016Z,102007.69
2023-05-19T15:24:46.631Z,101996.50
2023-05-19T15:27:13.708Z,102005.84
2023-05-19T15:29:40.235Z,101999.38
2023-05-19T15:32:07.909Z,101999.44
2023-05-19T15:34:34.494Z,102002.06
2023-05-19T15:37:01.031Z,101996.94
2023-05-19T15:39:30.106Z,101999.63
2023-05-19T15:41:56.673Z,101995.06
2023-05-19T15:44:23.164Z,101989.97
2023-05-19T15:46:49.785Z,101988.19
2023-05-19T15:49:16.375Z,101987.44
2023-05-19T15:51:43.148Z,101988.84
2023-05-19T15:54:10.114Z,101981.22
2023-05-19T15:56:38.003Z,101978.34
2023-05-19T15:59:04.535Z,101985.84
2023-05-19T16:01:31.175Z,101980.59
2023-05-19T16:03:57.949Z,101988.41
2023-05-19T16:06:24.550Z,101973.06
2023-05-19T16:08:51.070Z,101981.75
2023-05-19T16:11:17.610Z,101977.03
2023-05-19T16:13:45.492Z,101971.75
2023-05-19T16:16:12.150Z,101976.50
2023-05-19T16:18:38.739Z,101964.50
2023-05-19T16:21:05.742Z,101968.56
2023-05-19T16:23:32.361Z,101967.28
2023-05-19T16:25:58.905Z,101966.44
2023-05-19T16:28:25.515Z,101962.84
2023-05-19T16:30:57.076Z,101955.66
2023-05-19T16:33:23.674Z,101956.06
2023-05-19T16:35:50.337Z,101955.03
2023-05-19T16:38:16.890Z,101951.56
2023-05-19T16:40:43.436Z,101949.78
2023-05-19T16:43:09.968Z,101953.41
2023-05-19T16:45:36.738Z,101955.44
2023-05-19T16:48:05.109Z,101947.16
2023-05-19T16:50:31.713Z,101948.19
2023-05-19T16:52:58.283Z,101949.63
2023-05-19T16:55:24.922Z,101944.44
2023-05-19T16:57:51.472Z,101945.66
2023-05-19T17:00:18.475Z,101941.25
2023-05-19T17:02:45.127Z,101937.91
2023-05-19T17:05:13.116Z,101945.25
2023-05-19T17:07:39.672Z,101940.28
2023-05-19T17:10:07.023Z,101939.56
2023-05-19T17:12:33.563Z,101939.84
2023-05-19T17:15:00.171Z,101944.41
2023-05-19T17:17:26.741Z,101944.78
2023-05-19T17:19:53.328Z,101941.44
2023-05-19T17:22:21.314Z,101946.66
2023-05-19T17:24:47.837Z,101948.72
2023-05-19T17:27:14.435Z,101949.84
2023-05-19T17:29:41.025Z,101946.28
2023-05-19T17:32:07.786Z,101944.16
2023-05-19T17:34:34.359Z,101950.69
2023-05-19T17:37:00.875Z,101939.78
2023-05-19T17:39:28.694Z,101941.19
2023-05-19T17:41:55.222Z,101941.28
2023-05-19T17:44:21.761Z,101945.53
2023-05-19T17:46:48.434Z,101939.31
2023-05-19T17:49:15.084Z,101935.16
2023-05-19T17:51:42.164Z,101943.44
2023-05-19T17:54:09.251Z,101942.41
2023-05-19T17:56:41.303Z,101943.88
2023-05-19T17:59:08.314Z,101943.88
2023-05-19T18:01:35.392Z,101946.75
2023-05-19T18:04:02.650Z,101945.19
2023-05-19T18:06:30.354Z,101947.13
2023-05-19T18:08:58.797Z,101938.94
2023-05-19T18:11:25.894Z,101944.47
2023-05-19T18:13:53.796Z,101945.47
2023-05-19T18:16:20.359Z,101947.56
2023-05-19T18:18:46.945Z,101949.09
2023-05-19T18:21:13.601Z,101946.91
2023-05-19T18:23:40.503Z,101952.03
2023-05-19T18:26:07.126Z,101960.13
2023-05-19T18:28:33.706Z,101959.09
2023-05-19T18:31:03.524Z,101962.09
2023-05-19T18:33:30.934Z,101962.91
2023-05-19T18:35:58.286Z,101964.66
2023-05-19T18:38:24.850Z,101961.22
2023-05-19T18:40:52.002Z,101963.50
2023-05-19T18:43:18.943Z,101970.59
2023-05-19T18:45:46.890Z,101968.78
2023-05-19T18:48:14.899Z,101976.63
2023-05-19T18:50:41.798Z,101969.88
2023-05-19T18:53:08.323Z,101978.19
2023-05-19T18:55:36.481Z,101976.41
2023-05-19T18:58:04.364Z,101973.28
2023-05-19T19:00:31.034Z,101978.69
2023-05-19T19:02:57.876Z,101978.38
2023-05-19T19:05:25.809Z,101982.91
2023-05-19T19:07:52.357Z,101979.94
2023-05-19T19:10:19.198Z,101980.31
2023-05-19T19:12:45.920Z,101990.88
2023-05-19T19:15:12.567Z,101985.53
2023-05-19T19:17:39.200Z,101993.13
2023-05-19T19:20:07.213Z,101995.31
2023-05-19T19:22:35.145Z,101998.53
2023-05-19T19:25:01.720Z,101999.84
2023-05-19T19:27:28.230Z,102000.19
2023-05-19T19:29:54.784Z,101996.69
2023-05-19T19:32:21.341Z,102015.66
2023-05-19T19:34:47.838Z,102008.28
2023-05-19T19:37:14.371Z,102006.41
2023-05-19T19:39:42.270Z,102011.63
2023-05-19T19:42:08.854Z,102013.94
2023-05-19T19:44:35.531Z,102016.13
2023-05-19T19:47:02.156Z,102019.81
2023-05-19T19:49:28.713Z,102021.97
2023-05-19T19:51:55.217Z,102033.03
2023-05-19T19:54:21.739Z,102032.84
2023-05-19T19:56:49.622Z,102026.81
2023-05-19T19:59:16.209Z,102032.66
2023-05-19T20:01:42.872Z,102035.00
2023-05-19T20:04:09.613Z,102046.88
2023-05-19T20:06:36.222Z,102036.00
2023-05-19T20:09:03.040Z,102036.31
2023-05-19T20:11:29.925Z,102036.78
2023-05-19T20:13:57.777Z,102043.97
2023-05-19T20:16:24.370Z,102041.97
2023-05-19T20:18:50.981Z,102041.75
2023-05-19T20:21:17.553Z,102042.59
2023-05-19T20:23:44.105Z,102043.63
2023-05-19T20:26:13.080Z,102050.59
2023-05-19T20:28:40.352Z,102041.88
2023-05-19T20:31:08.562Z,102046.06
2023-05-19T20:33:35.149Z,102036.81
2023-05-19T20:36:01.664Z,102040.66
2023-05-19T20:38:28.213Z,102039.16
2023-05-19T20:40:54.874Z,102047.69
2023-05-19T20:43:21.495Z,102041.44
2023-05-19T20:45:48.333Z,102041.94
2023-05-19T20:48:16.413Z,102036.88
2023-05-19T20:50:42.999Z,102038.53
2023-05-19T20:53:09.519Z,102030.47
2023-05-19T20:55:36.262Z,102037.31
2023-05-19T20:58:02.932Z,102038.50
2023-05-19T21:00:30.586Z,102044.84
2023-05-19T21:02:57.692Z,102051.06
2023-05-19T21:05:25.855Z,102044.13
2023-05-19T21:07:52.378Z,102049.63
2023-05-19T21:10:19.043Z,102047.13
2023-05-19T21:12:45.633Z,102044.22
2023-05-19T21:15:12.336Z,102046.22
2023-05-19T21:17:38.933Z,102047.84
2023-05-19T21:20:06.607Z,102055.66
2023-05-19T21:22:34.534Z,102058.53
2023-05-19T21:25:01.177Z,102055.16
2023-05-19T21:27:27.766Z,102056.50
2023-05-19T21:29:54.325Z,102064.81
2023-05-19T21:32:21.126Z,102057.09
2023-05-19T21:34:47.649Z,102061.78
2023-05-19T21:37:14.175Z,102058.19
2023-05-19T21:39:42.076Z,102054.38
2023-05-19T21:42:08.595Z,102054.53
2023-05-19T21:44:35.114Z,102059.03
2023-05-19T21:47:01.667Z,102064.38
2023-05-19T21:49:28.211Z,102061.84
2023-05-19T21:51:54.744Z,102057.69
2023-05-19T21:54:21.258Z,102062.19
2023-05-19T21:56:49.112Z,102056.59
2023-05-19T21:59:15.627Z,102056.94
2023-05-19T22:01:42.246Z,102061.28
2023-05-19T22:04:09.012Z,102056.38
2023-05-19T22:06:35.674Z,102063.72
2023-05-19T22:09:02.201Z,102062.50
2023-05-19T22:11:28.731Z,102063.50
2023-05-19T22:13:56.586Z,102064.63
2023-05-19T22:16:23.128Z,102054.78
2023-05-19T22:18:49.751Z,102059.44
2023-05-19T22:21:16.345Z,102061.25
2023-05-19T22:23:42.934Z,102060.06
2023-05-19T22:26:09.688Z,102054.84
2023-05-19T22:28:36.297Z,102066.69
2023-05-19T22:31:04.542Z,102059.66
2023-05-19T22:33:31.076Z,102059.94
2023-05-19T22:35:57.867Z,102053.09
2023-05-19T22:38:24.438Z,102058.88
2023-05-19T22:40:51.026Z,102061.56
2023-05-19T22:43:17.563Z,102057.47
2023-05-19T22:45:44.322Z,102047.94
2023-05-19T22:48:12.292Z,102051.75
2023-05-19T22:50:38.877Z,102052.31
2023-05-19T22:53:05.373Z,102049.91
2023-05-19T22:55:32.082Z,102047.97
2023-05-19T22:57:58.767Z,102052.94
2023-05-19T23:00:25.326Z,102051.97
2023-05-19T23:02:51.925Z,102050.28
2023-05-19T23:05:20.047Z,102052.25
2023-05-19T23:07:46.568Z,102052.41
2023-05-19T23:10:13.245Z,102058.50
2023-05-19T23:12:39.801Z,102057.09
2023-05-19T23:15:08.135Z,102055.41
2023-05-19T23:17:34.707Z,102047.88
2023-05-19T23:20:01.500Z,102053.44
2023-05-19T23:22:29.427Z,102049.41
2023-05-19T23:24:55.955Z,102057.00
2023-05-19T23:27:22.710Z,102056.91
2023-05-19T23:29:50.676Z,102052.56
2023-05-19T23:32:17.229Z,102057.06
2023-05-19T23:34:43.785Z,102052.16
2023-05-19T23:37:10.349Z,102050.78
2023-05-19T23:39:38.418Z,102048.06
2023-05-19T23:42:05.513Z,102047.28
2023-05-19T23:44:32.076Z,102046.84
2023-05-19T23:46:58.649Z,102043.50
2023-05-19T23:49:25.313Z,102053.88
2023-05-19T23:51:51.835Z,102040.28
2023-05-19T23:54:18.405Z,102045.91
2023-05-19T23:56:46.281Z,102039.59
2023-05-19T23:59:12.853Z,102038.94
